createdAt,value
2023-05-09T00:00:50.045Z,54.8564
2023-05-09T00:01:51.157Z,54.8113
2023-05-09T00:02:52.265Z,54.6889
2023-05-09T00:03:53.400Z,54.6217
2023-05-09T00:04:54.459Z,54.5970
2023-05-09T00:05:55.610Z,54.5564
2023-05-09T00:06:56.620Z,54.5044
2023-05-09T00:07:57.712Z,54.4850
2023-05-09T00:08:58.816Z,54.4999
2023-05-09T00:09:59.897Z,54.5256
2023-05-09T00:11:00.999Z,54.5625
2023-05-09T00:12:02.096Z,54.5428
2023-05-09T00:13:03.208Z,54.4958
2023-05-09T00:14:04.276Z,54.4562
2023-05-09T00:15:05.422Z,54.3983
2023-05-09T00:16:06.474Z,54.4038
2023-05-09T00:17:07.537Z,54.4115
2023-05-09T00:18:08.626Z,54.4203
2023-05-09T00:19:09.736Z,54.4209
2023-05-09T00:20:10.842Z,54.3891
2023-05-09T00:21:11.998Z,54.3698
2023-05-09T00:22:12.998Z,54.2851
2023-05-09T00:23:14.101Z,54.2550
2023-05-09T00:24:15.196Z,54.2346
2023-05-09T00:25:16.508Z,54.2028
2023-05-09T00:26:17.389Z,54.2091
2023-05-09T00:27:18.494Z,54.2045
2023-05-09T00:28:19.573Z,54.2151
2023-05-09T00:29:20.671Z,54.2828
2023-05-09T00:30:21.750Z,54.2899
2023-05-09T00:31:22.862Z,54.2192
2023-05-09T00:32:23.951Z,54.1736
2023-05-09T00:33:25.065Z,54.1498
2023-05-09T00:34:26.146Z,54.1255
2023-05-09T00:35:27.243Z,54.1608
2023-05-09T00:36:28.420Z,54.1817
2023-05-09T00:37:29.434Z,54.1418
2023-05-09T00:38:30.544Z,54.1317
2023-05-09T00:39:31.622Z,54.1463
2023-05-09T00:40:32.732Z,54.1788
2023-05-09T00:41:33.807Z,54.2168
2023-05-09T00:42:34.901Z,54.2438
2023-05-09T00:43:35.982Z,54.2219
2023-05-09T00:44:37.086Z,54.1871
2023-05-09T00:45:38.198Z,54.1435
2023-05-09T00:46:39.273Z,54.1342
2023-05-09T00:47:40.383Z,54.0744
2023-05-09T00:48:41.458Z,54.0392
2023-05-09T00:49:42.563Z,54.0099
2023-05-09T00:50:43.671Z,53.9410
2023-05-09T00:51:44.827Z,53.9265
2023-05-09T00:52:45.819Z,53.9466
2023-05-09T00:53:46.908Z,53.9373
2023-05-09T00:54:48.038Z,53.8849
2023-05-09T00:55:49.109Z,53.8826
2023-05-09T00:56:50.212Z,53.8993
2023-05-09T00:57:51.309Z,53.9138
2023-05-09T00:58:52.398Z,53.9721
2023-05-09T00:59:53.506Z,53.9650
2023-05-09T01:00:54.603Z,53.9162
2023-05-09T01:01:55.689Z,53.8398
2023-05-09T01:02:56.935Z,53.9093
2023-05-09T01:03:57.886Z,53.9171
2023-05-09T01:04:58.992Z,53.9367
2023-05-09T01:06:00.105Z,53.9303
2023-05-09T01:07:01.281Z,53.8879
2023-05-09T01:08:02.280Z,53.8519
2023-05-09T01:09:03.373Z,53.8473
2023-05-09T01:10:04.453Z,53.8807
2023-05-09T01:11:05.617Z,53.8563
2023-05-09T01:12:06.654Z,53.8438
2023-05-09T01:13:07.759Z,53.8297
2023-05-09T01:14:08.856Z,53.7495
2023-05-09T01:15:09.948Z,53.7197
2023-05-09T01:16:11.078Z,53.6948
2023-05-09T01:17:12.108Z,53.6528
2023-05-09T01:18:13.245Z,53.6057
2023-05-09T01:19:14.309Z,53.6306
2023-05-09T01:20:15.405Z,53.7275
2023-05-09T01:21:16.509Z,53.7414
2023-05-09T01:22:17.709Z,53.7514
2023-05-09T01:23:18.693Z,53.7464
2023-05-09T01:24:19.772Z,53.7040
2023-05-09T01:25:20.886Z,53.6707
2023-05-09T01:26:21.964Z,53.7007
2023-05-09T01:27:23.055Z,53.7307
2023-05-09T01:28:24.148Z,53.7023
2023-05-09T01:29:25.254Z,53.6867
2023-05-09T01:30:26.350Z,53.6822
2023-05-09T01:31:27.450Z,53.7071
2023-05-09T01:32:28.614Z,53.7518
2023-05-09T01:33:29.636Z,53.7887
2023-05-09T01:34:30.739Z,53.7960
2023-05-09T01:35:31.834Z,53.8152
2023-05-09T01:36:33.017Z,53.8803
2023-05-09T01:37:34.089Z,53.9756
2023-05-09T01:38:35.109Z,53.9108
2023-05-09T01:39:36.190Z,53.9195
2023-05-09T01:40:37.286Z,53.9834
2023-05-09T01:41:38.416Z,54.0054
2023-05-09T01:42:39.473Z,53.9673
2023-05-09T01:43:40.653Z,53.9830
2023-05-09T01:44:41.663Z,53.9652
2023-05-09T01:45:42.773Z,53.9346
2023-05-09T01:46:43.888Z,53.9514
2023-05-09T01:47:44.991Z,53.9045
2023-05-09T01:48:46.031Z,53.8274
2023-05-09T01:49:47.120Z,53.7566
2023-05-09T01:50:48.208Z,53.7389
2023-05-09T01:51:49.318Z,53.6973
2023-05-09T01:52:50.495Z,53.5915
2023-05-09T01:53:51.493Z,53.5275
2023-05-09T01:54:52.592Z,53.4424
2023-05-09T01:55:53.665Z,53.3608
2023-05-09T01:56:54.796Z,53.3416
2023-05-09T01:57:55.858Z,53.3811
2023-05-09T01:58:56.960Z,53.3418
2023-05-09T01:59:58.041Z,53.3224
2023-05-09T02:00:59.180Z,53.3150
2023-05-09T02:02:00.361Z,53.2504
2023-05-09T02:03:01.427Z,53.2529
2023-05-09T02:04:02.427Z,53.2833
2023-05-09T02:05:03.568Z,53.3585
2023-05-09T02:06:04.611Z,53.4082
2023-05-09T02:07:05.742Z,53.4498
2023-05-09T02:08:06.907Z,53.4861
2023-05-09T02:09:07.884Z,53.5042
2023-05-09T02:10:08.977Z,53.5802
2023-05-09T02:11:17.612Z,53.5746
2023-05-09T02:12:11.179Z,53.5046
2023-05-09T02:13:12.278Z,53.4396
2023-05-09T02:14:13.355Z,53.3640
2023-05-09T02:15:14.648Z,53.2538
2023-05-09T02:16:15.593Z,53.1649
2023-05-09T02:17:16.624Z,53.1754
2023-05-09T02:18:17.719Z,53.2411
2023-05-09T02:19:18.806Z,53.2461
2023-05-09T02:20:19.891Z,53.1985
2023-05-09T02:21:20.985Z,53.1998
2023-05-09T02:22:22.105Z,53.1687
2023-05-09T02:23:23.267Z,53.0829
2023-05-09T02:24:24.340Z,53.0232
2023-05-09T02:25:25.417Z,53.0653
2023-05-09T02:26:26.515Z,53.1775
2023-05-09T02:27:27.625Z,53.2108
2023-05-09T02:28:28.686Z,53.2807
2023-05-09T02:29:29.788Z,53.2938
2023-05-09T02:30:30.874Z,53.3207
2023-05-09T02:31:32.009Z,53.2635
2023-05-09T02:32:33.097Z,53.2576
2023-05-09T02:33:34.131Z,53.2583
2023-05-09T02:34:35.223Z,53.1959
2023-05-09T02:35:36.307Z,53.1247
2023-05-09T02:36:37.437Z,53.1419
2023-05-09T02:37:38.499Z,53.1554
2023-05-09T02:38:39.641Z,53.1887
2023-05-09T02:39:40.650Z,53.2350
2023-05-09T02:40:41.744Z,53.2498
2023-05-09T02:41:42.814Z,53.3083
2023-05-09T02:42:43.911Z,53.3488
2023-05-09T02:43:44.991Z,53.3372
2023-05-09T02:44:46.089Z,53.3150
2023-05-09T02:45:47.249Z,53.3608
2023-05-09T02:46:48.265Z,53.3793
2023-05-09T02:47:49.416Z,53.4162
2023-05-09T02:48:50.460Z,53.4799
2023-05-09T02:49:51.556Z,53.4970
2023-05-09T02:50:52.689Z,53.4889
2023-05-09T02:51:53.741Z,53.4411
2023-05-09T02:52:54.819Z,53.4033
2023-05-09T02:53:55.984Z,53.4098
2023-05-09T02:54:57.018Z,53.4278
2023-05-09T02:55:58.112Z,53.3698
2023-05-09T02:56:59.213Z,53.2719
2023-05-09T02:58:12.562Z,53.1999
2023-05-09T02:59:02.370Z,53.1852
2023-05-09T03:00:02.489Z,53.1662
2023-05-09T03:01:03.609Z,53.1852
2023-05-09T03:02:04.664Z,53.2344
2023-05-09T03:03:05.877Z,53.2765
2023-05-09T03:04:06.840Z,53.2812
2023-05-09T03:05:07.947Z,53.3149
2023-05-09T03:06:09.022Z,53.4164
2023-05-09T03:07:10.117Z,53.4841
2023-05-09T03:08:11.256Z,53.5367
2023-05-09T03:09:12.383Z,53.5143
2023-05-09T03:10:13.430Z,53.4748
2023-05-09T03:11:14.481Z,53.4486
2023-05-09T03:12:15.598Z,53.4865
2023-05-09T03:13:16.712Z,53.4880
2023-05-09T03:14:17.784Z,53.4765
2023-05-09T03:15:18.874Z,53.4340
2023-05-09T03:16:20.047Z,53.4599
2023-05-09T03:17:21.129Z,53.4512
2023-05-09T03:18:22.157Z,53.3875
2023-05-09T03:19:23.253Z,53.3486
2023-05-09T03:20:24.345Z,53.3586
2023-05-09T03:21:25.425Z,53.4199
2023-05-09T03:22:26.536Z,53.5265
2023-05-09T03:23:27.607Z,53.5732
2023-05-09T03:24:28.802Z,53.5304
2023-05-09T03:25:29.806Z,53.4853
2023-05-09T03:26:30.887Z,53.4465
2023-05-09T03:27:31.986Z,53.4517
2023-05-09T03:28:33.094Z,53.4799
2023-05-09T03:29:34.161Z,53.4554
2023-05-09T03:30:35.270Z,53.4546
2023-05-09T03:31:36.419Z,53.4798
2023-05-09T03:32:37.491Z,53.4745
2023-05-09T03:33:38.565Z,53.4673
2023-05-09T03:34:39.622Z,53.4655
2023-05-09T03:35:40.755Z,53.5398
2023-05-09T03:36:41.806Z,53.5716
2023-05-09T03:37:42.902Z,53.5287
2023-05-09T03:38:44.047Z,53.5442
2023-05-09T03:39:45.180Z,53.5583
2023-05-09T03:40:46.195Z,53.6504
2023-05-09T03:41:47.266Z,53.7709
2023-05-09T03:42:48.398Z,53.8782
2023-05-09T03:43:49.502Z,53.9140
2023-05-09T03:44:50.550Z,53.8682
2023-05-09T03:45:51.643Z,53.9051
2023-05-09T03:46:52.850Z,53.8831
2023-05-09T03:47:53.868Z,53.8793
2023-05-09T03:48:54.968Z,53.8782
2023-05-09T03:49:56.039Z,53.9598
2023-05-09T03:50:57.130Z,53.9649
2023-05-09T03:51:58.210Z,53.9863
2023-05-09T03:52:59.315Z,54.0645
2023-05-09T03:54:00.408Z,54.1194
2023-05-09T03:55:01.595Z,54.1033
2023-05-09T03:56:02.591Z,54.0600
2023-05-09T03:57:03.668Z,53.9929
2023-05-09T03:58:04.783Z,53.9409
2023-05-09T03:59:05.887Z,53.9461
2023-05-09T04:00:06.995Z,53.9775
2023-05-09T04:01:08.060Z,54.0216
2023-05-09T04:02:09.190Z,53.9758
2023-05-09T04:03:10.464Z,54.0317
2023-05-09T04:04:11.411Z,54.0567
2023-05-09T04:05:12.673Z,53.9936
2023-05-09T04:06:13.513Z,53.8993
2023-05-09T04:07:14.614Z,53.8477
2023-05-09T04:08:15.722Z,53.8595
2023-05-09T04:09:16.817Z,53.7796
2023-05-09T04:10:18.015Z,53.6741
2023-05-09T04:11:18.985Z,53.6071
2023-05-09T04:12:20.086Z,53.5689
2023-05-09T04:13:21.242Z,53.4840
2023-05-09T04:14:22.297Z,53.5017
2023-05-09T04:15:23.384Z,53.6525
2023-05-09T04:16:24.501Z,53.6729
2023-05-09T04:17:25.632Z,53.6563
2023-05-09T04:18:26.661Z,53.7585
2023-05-09T04:19:27.793Z,53.7915
2023-05-09T04:20:28.839Z,53.7701
2023-05-09T04:21:29.920Z,53.7988
2023-05-09T04:22:31.048Z,53.8111
2023-05-09T04:23:32.121Z,53.8445
2023-05-09T04:24:33.219Z,53.8759
2023-05-09T04:25:34.402Z,53.9064
2023-05-09T04:26:35.386Z,53.9825
2023-05-09T04:27:36.481Z,54.0462
2023-05-09T04:28:37.568Z,54.1070
2023-05-09T04:29:38.708Z,54.1377
2023-05-09T04:30:39.779Z,54.1698
2023-05-09T04:31:40.909Z,54.1328
2023-05-09T04:32:41.990Z,54.1255
2023-05-09T04:33:43.063Z,54.0782
2023-05-09T04:34:44.169Z,54.1145
2023-05-09T04:35:45.217Z,54.0779
2023-05-09T04:36:46.308Z,54.0558
2023-05-09T04:37:47.411Z,54.0661
2023-05-09T04:38:48.512Z,54.0301
2023-05-09T04:39:49.622Z,53.9885
2023-05-09T04:40:50.781Z,53.8780
2023-05-09T04:41:51.785Z,53.8684
2023-05-09T04:42:52.869Z,53.9131
2023-05-09T04:43:53.957Z,54.0671
2023-05-09T04:44:55.073Z,54.1456
2023-05-09T04:45:56.187Z,54.2338
2023-05-09T04:46:57.239Z,54.2338
2023-05-09T04:47:58.475Z,54.2856
2023-05-09T04:48:59.459Z,54.3586
2023-05-09T04:50:00.537Z,54.4408
2023-05-09T04:51:01.619Z,54.4822
2023-05-09T04:52:02.754Z,54.5632
2023-05-09T04:53:03.808Z,54.5332
2023-05-09T04:54:04.911Z,54.4878
2023-05-09T04:55:06.010Z,54.4931
2023-05-09T04:56:07.197Z,54.4619
2023-05-09T04:57:17.455Z,54.4538
2023-05-09T04:58:10.267Z,54.4443
2023-05-09T04:59:10.400Z,54.4367
2023-05-09T05:00:11.516Z,54.4289
2023-05-09T05:01:12.617Z,54.6263
2023-05-09T05:02:13.667Z,54.7091
2023-05-09T05:03:14.750Z,54.6679
2023-05-09T05:04:15.895Z,54.6174
2023-05-09T05:05:17.109Z,54.7274
2023-05-09T05:06:18.075Z,54.7879
2023-05-09T05:07:19.141Z,54.8213
2023-05-09T05:08:20.262Z,54.8492
2023-05-09T05:09:21.345Z,54.8826
2023-05-09T05:10:22.471Z,54.9212
2023-05-09T05:11:23.611Z,54.9605
2023-05-09T05:12:24.624Z,54.9797
2023-05-09T05:13:25.814Z,54.9501
2023-05-09T05:14:26.813Z,54.8948
2023-05-09T05:15:27.917Z,54.8177
2023-05-09T05:16:29.092Z,54.8178
2023-05-09T05:17:30.116Z,54.9352
2023-05-09T05:18:31.188Z,54.9992
2023-05-09T05:19:32.298Z,54.9031
2023-05-09T05:20:33.423Z,54.8532
2023-05-09T05:21:34.473Z,54.8101
2023-05-09T05:22:35.587Z,54.7686
2023-05-09T05:23:36.667Z,54.8471
2023-05-09T05:24:37.786Z,54.7656
2023-05-09T05:25:38.883Z,54.7683
2023-05-09T05:26:40.052Z,54.8366
2023-05-09T05:27:41.105Z,54.8449
2023-05-09T05:28:42.149Z,54.7912
2023-05-09T05:29:43.256Z,54.8164
2023-05-09T05:30:44.363Z,54.8593
2023-05-09T05:31:45.443Z,54.9035
2023-05-09T05:32:46.547Z,54.8969
2023-05-09T05:33:47.621Z,54.9703
2023-05-09T05:34:48.729Z,54.9205
2023-05-09T05:35:49.829Z,54.8703
2023-05-09T05:36:50.899Z,55.0064
2023-05-09T05:37:52.001Z,55.0857
2023-05-09T05:38:53.107Z,55.0546
2023-05-09T05:39:54.213Z,54.9508
2023-05-09T05:40:55.322Z,55.0445
2023-05-09T05:41:56.496Z,55.1861
2023-05-09T05:42:57.503Z,55.1356
2023-05-09T05:43:58.583Z,55.0654
2023-05-09T05:44:59.685Z,55.0421
2023-05-09T05:46:00.838Z,55.1483
2023-05-09T05:47:01.864Z,55.2163
2023-05-09T05:48:03.032Z,55.2961
2023-05-09T05:49:04.068Z,55.4140
2023-05-09T05:50:05.161Z,55.5575
2023-05-09T05:51:06.261Z,55.4954
2023-05-09T05:52:07.356Z,55.4113
2023-05-09T05:53:08.446Z,55.3251
2023-05-09T05:54:09.542Z,55.3934
2023-05-09T05:55:10.652Z,55.4174
2023-05-09T05:56:11.784Z,55.5166
2023-05-09T05:57:12.864Z,55.5338
2023-05-09T05:58:13.958Z,55.4730
2023-05-09T05:59:15.026Z,55.4109
2023-05-09T06:00:16.117Z,55.2884
2023-05-09T06:01:17.223Z,55.4068
2023-05-09T06:02:18.436Z,55.4120
2023-05-09T06:03:19.499Z,55.3633
2023-05-09T06:04:20.614Z,55.3796
2023-05-09T06:05:21.602Z,55.2814
2023-05-09T06:06:22.708Z,55.2482
2023-05-09T06:07:23.790Z,55.2658
2023-05-09T06:08:24.895Z,55.4272
2023-05-09T06:09:25.992Z,55.5102
2023-05-09T06:10:27.099Z,55.5953
2023-05-09T06:11:28.208Z,55.4384
2023-05-09T06:12:29.378Z,55.3276
2023-05-09T06:13:30.402Z,55.3249
2023-05-09T06:14:31.478Z,55.3182
2023-05-09T06:15:32.560Z,55.3761
2023-05-09T06:16:33.677Z,55.4388
2023-05-09T06:17:34.785Z,55.3673
2023-05-09T06:18:35.861Z,55.2733
2023-05-09T06:19:36.953Z,55.3524
2023-05-09T06:20:38.048Z,55.3591
2023-05-09T06:21:39.149Z,55.2634
2023-05-09T06:22:40.234Z,55.2984
2023-05-09T06:23:57.000Z,55.3748
2023-05-09T06:24:43.488Z,55.4075
2023-05-09T06:25:43.613Z,55.4157
2023-05-09T06:26:44.666Z,55.3996
2023-05-09T06:27:45.849Z,55.4774
2023-05-09T06:28:46.871Z,55.4404
2023-05-09T06:29:47.976Z,55.4561
2023-05-09T06:30:49.065Z,55.4002
2023-05-09T06:31:50.191Z,55.3891
2023-05-09T06:32:51.284Z,55.4770
2023-05-09T06:33:52.373Z,55.6305
2023-05-09T06:34:53.456Z,55.5669
2023-05-09T06:35:54.532Z,55.5531
2023-05-09T06:36:55.633Z,55.5991
2023-05-09T06:37:56.737Z,55.6322
2023-05-09T06:38:57.821Z,55.5849
2023-05-09T06:39:58.920Z,55.5457
2023-05-09T06:41:00.011Z,55.4600
2023-05-09T06:42:01.146Z,55.3848
2023-05-09T06:43:02.300Z,55.2719
2023-05-09T06:44:03.300Z,55.1913
2023-05-09T06:45:04.425Z,55.2126
2023-05-09T06:46:05.537Z,55.1822
2023-05-09T06:47:06.593Z,55.1759
2023-05-09T06:48:07.787Z,55.0844
2023-05-09T06:49:08.775Z,55.0313
2023-05-09T06:50:09.883Z,54.9861
2023-05-09T06:51:10.988Z,54.8535
2023-05-09T06:52:12.073Z,54.8806
2023-05-09T06:53:13.158Z,54.9831
2023-05-09T06:54:14.257Z,55.0318
2023-05-09T06:55:15.591Z,55.0301
2023-05-09T06:56:18.322Z,55.0852
2023-05-09T06:57:17.541Z,55.1561
2023-05-09T06:58:18.718Z,55.2101
2023-05-09T06:59:19.712Z,55.1849
2023-05-09T07:00:20.826Z,55.2052
2023-05-09T07:01:21.979Z,55.2262
2023-05-09T07:02:23.039Z,55.2321
2023-05-09T07:03:24.091Z,55.2573
2023-05-09T07:04:25.189Z,55.2186
2023-05-09T07:05:26.353Z,55.0288
2023-05-09T07:06:27.369Z,54.8765
2023-05-09T07:07:28.500Z,54.9019
2023-05-09T07:08:29.564Z,54.9971
2023-05-09T07:09:30.667Z,54.9898
2023-05-09T07:10:31.730Z,55.0326
2023-05-09T07:11:32.820Z,54.9487
2023-05-09T07:12:33.946Z,54.7778
2023-05-09T07:13:35.114Z,54.7112
2023-05-09T07:14:36.129Z,54.6593
2023-05-09T07:15:42.266Z,54.6580
2023-05-09T07:16:39.357Z,54.6012
2023-05-09T07:17:39.505Z,54.5479
2023-05-09T07:18:40.509Z,54.4672
2023-05-09T07:19:41.583Z,54.3309
2023-05-09T07:20:42.685Z,54.3268
2023-05-09T07:21:43.795Z,54.3180
2023-05-09T07:22:44.891Z,54.1873
2023-05-09T07:23:46.060Z,54.0183
2023-05-09T07:24:47.076Z,53.8721
2023-05-09T07:25:48.169Z,53.7844
2023-05-09T07:26:49.258Z,53.7058
2023-05-09T07:27:50.388Z,53.5827
2023-05-09T07:28:51.533Z,53.6379
2023-05-09T07:29:52.541Z,53.5506
2023-05-09T07:30:53.655Z,53.4948
2023-05-09T07:31:54.788Z,53.4292
2023-05-09T07:32:55.885Z,53.3908
2023-05-09T07:33:56.925Z,53.3385
2023-05-09T07:34:58.035Z,53.2737
2023-05-09T07:35:59.162Z,53.2283
2023-05-09T07:37:00.218Z,53.4526
2023-05-09T07:38:01.337Z,53.4620
2023-05-09T07:39:02.394Z,53.5534
2023-05-09T07:40:03.500Z,53.4947
2023-05-09T07:41:04.611Z,53.4692
2023-05-09T07:42:05.701Z,53.2875
2023-05-09T07:43:06.790Z,53.1209
2023-05-09T07:44:08.023Z,53.0557
2023-05-09T07:45:08.980Z,52.9125
2023-05-09T07:46:10.125Z,52.7258
2023-05-09T07:47:11.160Z,52.5888
2023-05-09T07:48:12.334Z,52.4350
2023-05-09T07:49:13.358Z,52.3696
2023-05-09T07:50:14.448Z,52.2687
2023-05-09T07:51:15.547Z,52.2361
2023-05-09T07:52:16.618Z,52.2262
2023-05-09T07:53:17.791Z,52.1759
2023-05-09T07:54:18.828Z,52.0221
2023-05-09T07:55:19.917Z,51.9580
2023-05-09T07:56:21.014Z,51.9514
2023-05-09T07:57:22.143Z,52.0711
2023-05-09T07:58:23.196Z,52.1542
2023-05-09T07:59:24.367Z,52.1570
2023-05-09T08:00:25.459Z,51.9989
2023-05-09T08:01:26.485Z,51.9789
2023-05-09T08:02:27.625Z,52.0305
2023-05-09T08:03:28.721Z,52.0371
2023-05-09T08:04:29.793Z,51.9151
2023-05-09T08:05:30.877Z,51.7786
2023-05-09T08:06:31.947Z,51.7480
2023-05-09T08:07:33.055Z,51.7819
2023-05-09T08:08:34.175Z,51.8517
2023-05-09T08:09:35.240Z,51.8099
2023-05-09T08:10:36.367Z,52.0137
2023-05-09T08:11:37.433Z,51.9883
2023-05-09T08:12:38.564Z,51.9608
2023-05-09T08:13:39.620Z,51.9759
2023-05-09T08:14:40.810Z,52.1020
2023-05-09T08:15:41.867Z,52.0239
2023-05-09T08:16:42.907Z,51.9150
2023-05-09T08:17:44.060Z,51.8173
2023-05-09T08:18:45.118Z,51.7384
2023-05-09T08:19:46.188Z,51.7355
2023-05-09T08:20:47.283Z,51.7150
2023-05-09T08:21:48.377Z,51.6345
2023-05-09T08:22:49.486Z,51.6081
2023-05-09T08:23:50.568Z,51.6135
2023-05-09T08:24:51.643Z,51.6765
2023-05-09T08:25:52.748Z,51.7335
2023-05-09T08:26:53.849Z,51.7548
2023-05-09T08:27:54.942Z,51.8078
2023-05-09T08:28:56.063Z,52.0556
2023-05-09T08:29:57.223Z,52.1605
2023-05-09T08:30:58.271Z,52.0330
2023-05-09T08:31:59.405Z,52.1517
2023-05-09T08:33:00.445Z,52.1568
2023-05-09T08:34:01.531Z,52.0051
2023-05-09T08:35:02.626Z,51.8855
2023-05-09T08:36:03.711Z,51.8783
2023-05-09T08:37:04.795Z,51.8623
2023-05-09T08:38:05.891Z,51.9259
2023-05-09T08:39:06.984Z,51.9595
2023-05-09T08:40:08.086Z,52.0953
2023-05-09T08:41:09.201Z,52.1498
2023-05-09T08:42:10.287Z,52.1858
2023-05-09T08:43:11.386Z,52.2484
2023-05-09T08:44:12.483Z,52.2956
2023-05-09T08:45:13.558Z,52.3366
2023-05-09T08:46:14.680Z,52.3419
2023-05-09T08:47:15.767Z,52.3879
2023-05-09T08:48:16.865Z,52.3973
2023-05-09T08:49:17.946Z,52.4302
2023-05-09T08:50:19.164Z,52.2866
2023-05-09T08:51:20.149Z,52.1982
2023-05-09T08:52:21.244Z,52.1984
2023-05-09T08:53:22.314Z,52.2862
2023-05-09T08:54:23.447Z,52.4125
2023-05-09T08:55:24.519Z,52.4217
2023-05-09T08:56:25.614Z,52.4150
2023-05-09T08:57:26.693Z,52.3949
2023-05-09T08:58:27.797Z,52.3715
2023-05-09T08:59:28.902Z,52.4461
2023-05-09T09:00:30.080Z,52.4596
2023-05-09T09:01:31.105Z,52.3876
2023-05-09T09:02:32.204Z,52.4891
2023-05-09T09:03:33.280Z,52.4896
2023-05-09T09:04:34.428Z,52.5894
2023-05-09T09:06:36.567Z,52.7945
2023-05-09T09:07:37.662Z,52.6373
2023-05-09T09:08:38.761Z,52.6202
2023-05-09T09:09:39.856Z,52.5160
2023-05-09T09:10:40.925Z,52.4157
2023-05-09T09:11:42.039Z,52.5382
2023-05-09T09:12:43.145Z,52.5225
2023-05-09T09:13:44.202Z,52.4253
2023-05-09T09:14:45.324Z,52.3226
2023-05-09T09:15:46.509Z,52.2653
2023-05-09T09:16:47.530Z,52.2840
2023-05-09T09:17:48.624Z,52.3520
2023-05-09T09:18:49.691Z,52.3628
2023-05-09T09:19:50.838Z,52.3307
2023-05-09T09:20:51.866Z,52.3764
2023-05-09T09:21:52.973Z,52.3830
2023-05-09T09:22:54.095Z,52.3616
2023-05-09T09:23:55.174Z,52.3768
2023-05-09T09:24:56.259Z,52.5489
2023-05-09T09:25:59.539Z,52.6377
2023-05-09T09:26:58.449Z,52.5879
2023-05-09T09:27:59.579Z,52.5748
2023-05-09T09:29:00.640Z,52.5223
2023-05-09T09:30:01.770Z,52.5252
2023-05-09T09:31:02.915Z,52.6420
2023-05-09T09:32:03.949Z,52.7624
2023-05-09T09:33:05.117Z,52.8660
2023-05-09T09:34:06.936Z,52.9887
2023-05-09T09:35:07.238Z,53.0898
2023-05-09T09:36:08.295Z,52.9618
2023-05-09T09:37:09.395Z,52.8744
2023-05-09T09:38:10.497Z,52.8153
2023-05-09T09:39:11.590Z,52.6360
2023-05-09T09:40:12.913Z,52.5225
2023-05-09T09:41:13.782Z,52.6154
2023-05-09T09:42:14.894Z,52.6712
2023-05-09T09:43:15.969Z,52.5635
2023-05-09T09:44:17.081Z,52.5205
2023-05-09T09:45:18.186Z,52.5603
2023-05-09T09:46:19.361Z,52.4968
2023-05-09T09:47:20.352Z,52.4438
2023-05-09T09:48:21.445Z,52.4011
2023-05-09T09:49:22.523Z,52.3389
2023-05-09T09:50:23.648Z,52.3020
2023-05-09T09:51:24.712Z,52.2473
2023-05-09T09:52:25.835Z,52.1688
2023-05-09T09:53:26.919Z,52.1935
2023-05-09T09:54:28.037Z,52.1693
2023-05-09T09:55:29.107Z,52.1460
2023-05-09T09:56:30.190Z,52.1362
2023-05-09T09:57:31.348Z,52.1292
2023-05-09T09:58:32.399Z,52.1453
2023-05-09T09:59:33.495Z,52.2415
2023-05-09T10:00:34.566Z,52.2172
2023-05-09T10:01:35.805Z,52.1761
2023-05-09T10:02:36.789Z,52.1240
2023-05-09T10:03:37.889Z,52.0524
2023-05-09T10:04:39.053Z,52.0385
2023-05-09T10:05:40.039Z,51.9569
2023-05-09T10:06:41.121Z,51.8214
2023-05-09T10:07:42.214Z,51.7750
2023-05-09T10:08:43.293Z,51.8977
2023-05-09T10:09:44.380Z,52.0326
2023-05-09T10:10:45.515Z,52.1665
2023-05-09T10:11:46.568Z,52.2311
2023-05-09T10:12:47.719Z,52.2426
2023-05-09T10:13:48.763Z,52.2252
2023-05-09T10:14:49.856Z,52.1637
2023-05-09T10:15:53.879Z,52.0379
2023-05-09T10:16:52.204Z,52.0014
2023-05-09T10:17:53.271Z,52.0080
2023-05-09T10:18:54.308Z,51.9868
2023-05-09T10:19:55.318Z,51.8885
2023-05-09T10:20:56.482Z,51.8084
2023-05-09T10:21:57.498Z,51.6851
2023-05-09T10:22:58.581Z,51.6128
2023-05-09T10:23:59.684Z,51.6280
2023-05-09T10:25:00.836Z,51.4977
2023-05-09T10:26:01.957Z,51.4363
2023-05-09T10:27:03.035Z,51.4585
2023-05-09T10:28:04.139Z,51.4808
2023-05-09T10:29:05.208Z,51.4874
2023-05-09T10:30:06.322Z,51.5148
2023-05-09T10:31:08.872Z,51.5811
2023-05-09T10:32:08.589Z,51.6630
2023-05-09T10:33:09.639Z,51.7163
2023-05-09T10:34:10.696Z,51.6422
2023-05-09T10:35:11.825Z,51.5956
2023-05-09T10:36:12.920Z,51.4742
2023-05-09T10:37:13.976Z,51.4547
2023-05-09T10:38:15.072Z,51.6084
2023-05-09T10:39:16.168Z,51.6755
2023-05-09T10:40:17.274Z,51.6300
2023-05-09T10:41:18.356Z,51.6065
2023-05-09T10:42:19.467Z,51.5183
2023-05-09T10:43:20.538Z,51.5015
2023-05-09T10:44:21.624Z,51.4113
2023-05-09T10:45:22.765Z,51.4256
2023-05-09T10:46:23.905Z,51.4348
2023-05-09T10:47:25.035Z,51.3691
2023-05-09T10:48:26.001Z,51.2823
2023-05-09T10:49:27.096Z,51.2158
2023-05-09T10:50:28.198Z,51.1313
2023-05-09T10:51:29.310Z,51.1018
2023-05-09T10:52:30.395Z,51.1315
2023-05-09T10:53:31.479Z,51.1854
2023-05-09T10:54:32.562Z,51.1244
2023-05-09T10:55:33.655Z,51.0103
2023-05-09T10:56:34.772Z,51.0010
2023-05-09T10:57:35.858Z,51.0436
2023-05-09T10:58:36.932Z,51.1281
2023-05-09T10:59:38.036Z,51.1872
2023-05-09T11:00:39.141Z,51.1658
2023-05-09T11:01:40.301Z,51.1015
2023-05-09T11:02:41.463Z,51.0878
2023-05-09T11:03:42.500Z,51.0785
2023-05-09T11:04:43.516Z,51.0621
2023-05-09T11:05:44.583Z,51.0974
2023-05-09T11:06:45.706Z,51.1081
2023-05-09T11:07:46.786Z,51.0885
2023-05-09T11:08:47.878Z,51.0213
2023-05-09T11:09:48.968Z,50.9146
2023-05-09T11:10:50.055Z,50.8618
2023-05-09T11:11:51.168Z,50.8160
2023-05-09T11:12:52.248Z,50.7201
2023-05-09T11:13:53.340Z,50.6389
2023-05-09T11:14:54.433Z,50.5574
2023-05-09T11:15:55.578Z,50.4466
2023-05-09T11:16:56.613Z,50.3143
2023-05-09T11:17:57.840Z,50.2538
2023-05-09T11:18:58.813Z,50.2127
2023-05-09T11:19:59.892Z,50.1874
2023-05-09T11:21:01.007Z,50.2616
2023-05-09T11:22:02.127Z,50.4522
2023-05-09T11:23:03.182Z,50.6159
2023-05-09T11:24:04.300Z,50.5907
2023-05-09T11:25:05.370Z,50.4700
2023-05-09T11:26:06.523Z,50.4222
2023-05-09T11:27:07.594Z,50.3977
2023-05-09T11:28:08.672Z,50.4160
2023-05-09T11:29:09.781Z,50.4917
2023-05-09T11:30:10.876Z,50.5505
2023-05-09T11:31:11.955Z,50.5722
2023-05-09T11:32:13.180Z,50.7046
2023-05-09T11:33:14.228Z,50.9299
2023-05-09T11:34:15.221Z,51.0448
2023-05-09T11:35:16.664Z,51.1087
2023-05-09T11:36:17.440Z,51.0015
2023-05-09T11:37:18.515Z,50.9104
2023-05-09T11:38:19.604Z,50.8526
2023-05-09T11:39:20.704Z,50.7477
2023-05-09T11:40:21.813Z,50.6641
2023-05-09T11:41:22.894Z,50.6887
2023-05-09T11:42:23.977Z,50.5826
2023-05-09T11:43:25.076Z,50.3930
2023-05-09T11:44:26.178Z,50.2137
2023-05-09T11:45:27.271Z,50.2154
2023-05-09T11:46:28.373Z,50.3186
2023-05-09T11:47:29.484Z,50.4189
2023-05-09T11:48:30.618Z,50.4487
2023-05-09T11:49:31.619Z,50.4343
2023-05-09T11:50:32.730Z,50.5259
2023-05-09T11:51:33.819Z,50.4185
2023-05-09T11:52:34.906Z,50.2911
2023-05-09T11:53:35.991Z,50.1818
2023-05-09T11:54:37.085Z,50.1144
2023-05-09T11:55:38.217Z,50.1383
2023-05-09T11:56:39.288Z,50.2918
2023-05-09T11:57:40.379Z,50.4751
2023-05-09T11:58:41.457Z,50.5132
2023-05-09T11:59:42.542Z,50.5243
2023-05-09T12:00:43.650Z,50.3995
2023-05-09T12:01:44.731Z,50.3214
2023-05-09T12:02:46.035Z,50.2812
2023-05-09T12:03:47.068Z,50.2424
2023-05-09T12:04:48.028Z,50.2240
2023-05-09T12:05:49.170Z,50.3016
2023-05-09T12:06:50.200Z,50.3080
2023-05-09T12:07:51.346Z,50.2597
2023-05-09T12:08:52.402Z,50.2273
2023-05-09T12:09:53.511Z,50.1769
2023-05-09T12:10:54.602Z,50.2551
2023-05-09T12:11:55.684Z,50.1345
2023-05-09T12:12:56.797Z,49.9998
2023-05-09T12:13:57.908Z,49.8699
2023-05-09T12:14:59.006Z,49.9553
2023-05-09T12:16:00.163Z,49.9432
2023-05-09T12:17:01.168Z,49.7545
2023-05-09T12:18:02.303Z,49.6158
2023-05-09T12:19:03.418Z,49.4715
2023-05-09T12:20:04.472Z,49.3914